メインページ
METAR-TAF:

METAR-TAF

空港 :

ロサンゼルス, カリフォルニア州, アメリカ合衆国

ロサンゼルス国際空港

緯度: 33-56-17N, 経度: 118-23-20W, 海抜: 38m

現時点の気象観測

当レポートは45分前の21:53(UTC)に作成
西の風 16kt
気温 23°C
湿度 73%
気圧 1015 hPa
視程: 16.1km
高度1500ftの雲はほとんどない
高度8000ftの雲はほとんどない

METAR: KLAX 262153Z 27016KT 10SM FEW015 FEW080 23/18 A2997 RMK AO2 SLP148 T02330178

時間: 15:38 (22:38 UTC)

予報

当レポートは1時間50分前の20:48(UTC)に作成
予報は26日の 21時(UTC)から 27日の 24時(UTC)まで有効
西の風 15kt
視程: 10km
高度1500ftの千切れ雲あり
26日の 2120時(UTC)から
西の風 15kt
視程: 10km
高度1500ftの雲は散在している
27日の 0200時(UTC)から
西の風 8kt
視程: 10km
晴天
27日の 0700時(UTC)から
変向風 3kt
視程: 10km
高度800ftの曇り
27日の 1700時(UTC)から
西の風 6kt
視程: 10km
高度1000ftの雲は散在している
27日の 2000時(UTC)から
西の風 12kt
視程: 10km
高度1000ftの雲は散在している

TAF: KLAX 262048Z 2621/2724 27015KT P6SM BKN015 FM262120 26015KT P6SM SCT015 FM270200 27008KT P6SM SKC FM270700 VRB03KT P6SM OVC008 FM271700 26006KT P6SM SCT010 FM272000 26012KT P6SM SCT010

4,000以上の空港の気象観測と天気予報(METAR報とTAF報)

利用可能な観測所は地図上に黄色い丸と赤い丸で示す。

丸の上にカーソルを重ねると観測所名を参照できる。

次にクリックすると気象観測と天気予報を参照できる。

マップの切り替え:黒色「×」印の緑ボタンをクリックして拡大、「-」印の緑ボタンをクリックして縮小、緑色の三角印をクリックして隣りの地図に切り替え


METAR-TAF: